createdAt,value
2018-05-15T00:00:22.864Z,11.69
2018-05-15T00:02:15.719Z,11.62
2018-05-15T00:03:15.634Z,11.64
2018-05-15T00:05:08.365Z,11.62
2018-05-15T00:06:08.273Z,11.55
2018-05-15T00:08:01.034Z,11.58
2018-05-15T00:09:00.994Z,11.51
2018-05-15T00:10:54.275Z,11.41
2018-05-15T00:11:53.656Z,11.43
2018-05-15T00:13:46.555Z,11.48
2018-05-15T00:14:46.413Z,11.41
2018-05-15T00:16:39.201Z,11.43
2018-05-15T00:17:39.066Z,11.37
2018-05-15T00:19:31.986Z,11.30
2018-05-15T00:20:31.728Z,11.22
2018-05-15T00:22:25.060Z,11.33
2018-05-15T00:23:24.950Z,11.25
2018-05-15T00:25:17.727Z,11.28
2018-05-15T00:26:17.593Z,11.23
2018-05-15T00:28:10.364Z,11.20
2018-05-15T00:29:10.256Z,11.20
2018-05-15T00:31:03.122Z,11.27
2018-05-15T00:32:03.016Z,11.20
2018-05-15T00:33:55.846Z,11.15
2018-05-15T00:34:55.660Z,11.23
2018-05-15T00:36:49.501Z,11.12
2018-05-15T00:37:48.804Z,11.08
2018-05-15T00:39:41.542Z,11.08
2018-05-15T00:40:41.454Z,11.13
2018-05-15T00:42:34.306Z,11.12
2018-05-15T00:43:34.235Z,11.16
2018-05-15T00:45:26.961Z,11.13
2018-05-15T00:46:26.853Z,11.12
2018-05-15T00:48:19.603Z,11.22
2018-05-15T00:49:19.497Z,11.19
2018-05-15T00:51:12.342Z,11.16
2018-05-15T00:52:12.242Z,11.03
2018-05-15T00:54:05.093Z,10.94
2018-05-15T00:55:04.993Z,10.98
2018-05-15T00:56:57.735Z,11.00
2018-05-15T00:57:57.691Z,11.08
2018-05-15T00:59:50.594Z,11.00
2018-05-15T01:00:50.506Z,10.86
2018-05-15T01:02:43.237Z,10.91
2018-05-15T01:03:43.133Z,10.91
2018-05-15T01:05:36.429Z,10.82
2018-05-15T01:06:36.320Z,10.85
2018-05-15T01:08:29.051Z,10.75
2018-05-15T01:09:28.957Z,10.78
2018-05-15T01:11:21.793Z,10.73
2018-05-15T01:12:21.704Z,10.70
2018-05-15T01:14:14.461Z,10.73
2018-05-15T01:15:14.356Z,10.75
2018-05-15T01:17:07.188Z,10.68
2018-05-15T01:18:07.101Z,10.65
2018-05-15T01:19:59.955Z,10.65
2018-05-15T01:20:59.842Z,10.64
2018-05-15T01:22:52.583Z,10.54
2018-05-15T01:23:52.510Z,10.46
2018-05-15T01:25:45.242Z,10.46
2018-05-15T01:26:45.130Z,10.55
2018-05-15T01:28:37.880Z,10.45
2018-05-15T01:29:37.776Z,10.55
2018-05-15T01:31:30.547Z,10.34
2018-05-15T01:32:30.441Z,10.42
2018-05-15T01:34:23.167Z,10.41
2018-05-15T01:35:23.077Z,10.36
2018-05-15T01:37:16.356Z,10.39
2018-05-15T01:38:16.235Z,10.35
2018-05-15T01:40:08.986Z,10.31
2018-05-15T01:41:08.916Z,10.36
2018-05-15T01:43:01.650Z,10.38
2018-05-15T01:44:01.544Z,10.42
2018-05-15T01:45:54.443Z,10.41
2018-05-15T01:46:54.182Z,10.41
2018-05-15T01:48:47.032Z,10.34
2018-05-15T01:49:46.924Z,10.30
2018-05-15T01:51:39.701Z,10.21
2018-05-15T01:52:39.570Z,10.21
2018-05-15T01:54:32.419Z,10.34
2018-05-15T01:55:32.323Z,10.21
2018-05-15T01:57:25.077Z,10.21
2018-05-15T01:58:24.975Z,10.10
2018-05-15T02:00:17.857Z,10.12
2018-05-15T02:01:17.761Z,10.06
2018-05-15T02:03:10.480Z,10.09
2018-05-15T02:04:10.409Z,10.12
2018-05-15T02:06:03.265Z,10.08
2018-05-15T02:07:03.061Z,10.10
2018-05-15T02:08:55.880Z,10.14
2018-05-15T02:09:55.671Z,10.10
2018-05-15T02:11:48.503Z,10.06
2018-05-15T02:12:48.423Z,10.09
2018-05-15T02:14:41.220Z,10.03
2018-05-15T02:15:41.066Z,10.05
2018-05-15T02:17:33.808Z,10.09
2018-05-15T02:18:33.726Z,10.09
2018-05-15T02:20:26.976Z,10.05
2018-05-15T02:21:26.859Z,9.99
2018-05-15T02:23:19.657Z,9.99
2018-05-15T02:24:19.504Z,10.02
2018-05-15T02:26:12.373Z,10.02
2018-05-15T02:27:12.260Z,9.99
2018-05-15T02:29:05.042Z,10.01
2018-05-15T02:30:04.944Z,9.85
2018-05-15T02:31:57.645Z,9.85
2018-05-15T02:32:57.553Z,9.78
2018-05-15T02:34:50.434Z,9.73
2018-05-15T02:35:50.207Z,9.73
2018-05-15T02:37:42.940Z,9.75
2018-05-15T02:38:42.879Z,9.72
2018-05-15T02:40:36.266Z,9.87
2018-05-15T02:41:35.498Z,9.81
2018-05-15T02:43:28.273Z,9.78
2018-05-15T02:44:28.154Z,9.77
2018-05-15T02:46:21.531Z,9.72
2018-05-15T02:47:21.310Z,9.63
2018-05-15T02:49:14.148Z,9.70
2018-05-15T02:50:14.063Z,9.70
2018-05-15T02:52:07.450Z,9.67
2018-05-15T02:53:06.709Z,9.75
2018-05-15T02:54:59.505Z,9.67
2018-05-15T02:55:59.368Z,9.67
2018-05-15T02:57:52.092Z,9.60
2018-05-15T02:58:51.997Z,9.69
2018-05-15T03:00:44.855Z,9.66
2018-05-15T03:01:44.668Z,9.66
2018-05-15T03:03:37.400Z,9.67
2018-05-15T03:04:37.289Z,9.70
2018-05-15T03:06:30.056Z,9.65
2018-05-15T03:07:29.931Z,9.63
2018-05-15T03:09:23.198Z,9.60
2018-05-15T03:10:23.097Z,9.62
2018-05-15T03:12:16.445Z,9.57
2018-05-15T03:13:15.848Z,9.54
2018-05-15T03:15:08.596Z,9.50
2018-05-15T03:16:08.506Z,9.55
2018-05-15T03:18:01.297Z,9.59
2018-05-15T03:19:01.184Z,9.63
2018-05-15T03:20:53.878Z,9.55
2018-05-15T03:21:53.792Z,9.57
2018-05-15T03:23:46.646Z,9.55
2018-05-15T03:24:46.539Z,9.50
2018-05-15T03:26:39.273Z,9.54
2018-05-15T03:27:39.179Z,9.52
2018-05-15T03:29:31.939Z,9.51
2018-05-15T03:30:31.830Z,9.50
2018-05-15T03:32:24.697Z,9.52
2018-05-15T03:33:24.580Z,9.48
2018-05-15T03:35:17.322Z,9.50
2018-05-15T03:36:17.233Z,9.52
2018-05-15T03:38:10.153Z,9.52
2018-05-15T03:39:09.988Z,9.55
2018-05-15T03:41:02.834Z,9.62
2018-05-15T03:42:02.727Z,9.60
2018-05-15T03:43:55.522Z,9.62
2018-05-15T03:44:55.376Z,9.62
2018-05-15T03:46:48.262Z,9.60
2018-05-15T03:47:48.125Z,9.66
2018-05-15T03:49:40.979Z,9.63
2018-05-15T03:50:40.770Z,9.73
2018-05-15T03:52:34.538Z,9.77
2018-05-15T03:53:34.444Z,9.75
2018-05-15T03:55:27.242Z,9.69
2018-05-15T03:56:27.081Z,9.73
2018-05-15T03:58:19.846Z,9.77
2018-05-15T03:59:19.749Z,9.80
2018-05-15T04:01:12.625Z,9.87
2018-05-15T04:02:12.482Z,9.87
2018-05-15T04:04:06.162Z,10.02
2018-05-15T04:05:06.052Z,10.02
2018-05-15T04:06:58.802Z,10.01
2018-05-15T04:07:58.720Z,10.02
2018-05-15T04:09:51.571Z,10.10
2018-05-15T04:10:51.487Z,10.08
2018-05-15T04:12:44.324Z,10.23
2018-05-15T04:13:44.124Z,10.26
2018-05-15T04:15:36.946Z,10.38
2018-05-15T04:16:36.866Z,10.41
2018-05-15T04:18:29.616Z,10.36
2018-05-15T04:19:29.513Z,10.42
2018-05-15T04:21:22.270Z,10.43
2018-05-15T04:22:22.144Z,10.41
2018-05-15T04:24:15.488Z,10.48
2018-05-15T04:25:14.816Z,10.45
2018-05-15T04:27:07.556Z,10.46
2018-05-15T04:28:07.448Z,10.39
2018-05-15T04:30:00.195Z,10.46
2018-05-15T04:31:00.083Z,10.54
2018-05-15T04:32:52.999Z,10.46
2018-05-15T04:33:52.853Z,10.52
2018-05-15T04:35:47.154Z,10.48
2018-05-15T04:36:47.044Z,10.60
2018-05-15T04:38:40.376Z,10.61
2018-05-15T04:39:39.686Z,10.64
2018-05-15T04:41:32.479Z,10.68
2018-05-15T04:42:32.327Z,10.72
2018-05-15T04:44:25.158Z,10.80
2018-05-15T04:45:25.052Z,10.76
2018-05-15T04:47:17.951Z,10.70
2018-05-15T04:48:17.896Z,10.86
2018-05-15T04:50:10.591Z,10.82
2018-05-15T04:51:10.456Z,10.85
2018-05-15T04:53:03.350Z,10.94
2018-05-15T04:54:03.214Z,10.91
2018-05-15T04:55:55.956Z,11.03
2018-05-15T04:56:55.858Z,11.01
2018-05-15T04:58:49.213Z,11.16
2018-05-15T04:59:49.022Z,11.11
2018-05-15T05:01:42.784Z,11.13
2018-05-15T05:02:42.687Z,11.23
2018-05-15T05:04:35.564Z,11.27
2018-05-15T05:05:35.456Z,11.30
2018-05-15T05:07:28.208Z,11.40
2018-05-15T05:08:28.083Z,11.41
2018-05-15T05:10:20.954Z,11.49
2018-05-15T05:11:20.832Z,11.43
2018-05-15T05:13:13.601Z,11.55
2018-05-15T05:14:13.474Z,11.55
2018-05-15T05:16:06.357Z,11.55
2018-05-15T05:17:06.129Z,11.61
2018-05-15T05:18:58.900Z,11.70
2018-05-15T05:19:58.769Z,11.69
2018-05-15T05:21:51.545Z,11.88
2018-05-15T05:22:51.445Z,11.80
2018-05-15T05:24:44.302Z,12.00
2018-05-15T05:25:44.168Z,12.08
2018-05-15T05:27:36.911Z,12.18
2018-05-15T05:28:36.811Z,12.18
2018-05-15T05:30:29.695Z,12.35
2018-05-15T05:31:29.595Z,12.35
2018-05-15T05:33:22.890Z,12.40
2018-05-15T05:34:22.723Z,12.41
2018-05-15T05:36:16.011Z,12.55
2018-05-15T05:37:15.892Z,12.55
2018-05-15T05:39:09.138Z,12.69
2018-05-15T05:40:09.130Z,12.80
2018-05-15T05:42:01.806Z,12.87
2018-05-15T05:43:01.688Z,12.88
2018-05-15T05:44:54.542Z,12.91
2018-05-15T05:45:54.455Z,12.88
2018-05-15T05:47:47.344Z,12.95
2018-05-15T05:48:47.204Z,12.96
2018-05-15T05:50:40.067Z,13.05
2018-05-15T05:51:39.972Z,13.08
2018-05-15T05:53:32.818Z,13.16
2018-05-15T05:54:32.717Z,13.16
2018-05-15T05:56:25.560Z,13.27
2018-05-15T05:57:25.461Z,13.30
2018-05-15T05:59:18.299Z,13.43
2018-05-15T06:00:18.187Z,13.43
2018-05-15T06:02:10.937Z,13.49
2018-05-15T06:03:10.839Z,13.53
2018-05-15T06:05:03.788Z,13.67
2018-05-15T06:06:03.711Z,13.71
2018-05-15T06:07:56.471Z,13.78
2018-05-15T06:08:56.353Z,13.78
2018-05-15T06:10:49.097Z,13.85
2018-05-15T06:11:48.988Z,13.94
2018-05-15T06:13:41.749Z,13.93
2018-05-15T06:14:41.633Z,14.04
2018-05-15T06:16:34.374Z,14.09
2018-05-15T06:17:34.282Z,14.15
2018-05-15T06:19:27.038Z,14.23
2018-05-15T06:20:26.931Z,14.30
2018-05-15T06:22:19.800Z,14.36
2018-05-15T06:23:19.685Z,14.30
2018-05-15T06:25:12.547Z,14.55
2018-05-15T06:26:12.435Z,14.52
2018-05-15T06:28:05.165Z,14.64
2018-05-15T06:29:05.070Z,14.70
2018-05-15T06:30:57.930Z,14.74
2018-05-15T06:31:57.835Z,14.86
2018-05-15T06:33:50.679Z,14.90
2018-05-15T06:34:50.631Z,14.87
2018-05-15T06:36:43.431Z,14.90
2018-05-15T06:37:43.320Z,14.97
2018-05-15T06:39:36.093Z,15.11
2018-05-15T06:40:35.977Z,15.10
2018-05-15T06:42:30.318Z,15.17
2018-05-15T06:43:30.167Z,15.20
2018-05-15T06:45:23.026Z,15.30
2018-05-15T06:46:23.410Z,15.36
2018-05-15T06:48:15.637Z,15.43
2018-05-15T06:49:15.553Z,15.45
2018-05-15T06:51:08.405Z,15.56
2018-05-15T06:52:08.290Z,15.58
2018-05-15T06:54:01.049Z,15.76
2018-05-15T06:55:00.963Z,15.76
2018-05-15T06:56:54.319Z,15.84
2018-05-15T06:57:54.203Z,15.88
2018-05-15T06:59:46.976Z,15.93
2018-05-15T07:00:46.862Z,15.88
2018-05-15T07:02:40.125Z,15.87
2018-05-15T07:03:40.016Z,16.05
2018-05-15T07:05:32.876Z,16.14
2018-05-15T07:06:32.763Z,16.08
2018-05-15T07:08:25.621Z,16.16
2018-05-15T07:09:25.518Z,16.25
2018-05-15T07:11:18.461Z,16.39
2018-05-15T07:12:18.361Z,16.40
2018-05-15T07:14:11.356Z,16.55
2018-05-15T07:15:11.202Z,16.64
2018-05-15T07:17:03.954Z,16.62
2018-05-15T07:18:03.880Z,16.70
2018-05-15T07:19:56.614Z,16.79
2018-05-15T07:20:56.544Z,16.90
2018-05-15T07:22:49.473Z,16.97
2018-05-15T07:23:49.372Z,17.07
2018-05-15T07:25:42.240Z,17.07
2018-05-15T07:26:42.111Z,17.02
2018-05-15T07:28:34.869Z,17.04
2018-05-15T07:29:34.754Z,17.13
2018-05-15T07:31:27.607Z,17.27
2018-05-15T07:32:27.504Z,17.28
2018-05-15T07:34:20.386Z,17.43
2018-05-15T07:35:20.281Z,17.37
2018-05-15T07:37:13.137Z,17.41
2018-05-15T07:38:13.029Z,17.43
2018-05-15T07:40:05.864Z,17.35
2018-05-15T07:41:05.751Z,17.45
2018-05-15T07:42:58.618Z,17.57
2018-05-15T07:43:58.506Z,17.65
2018-05-15T07:45:51.380Z,17.79
2018-05-15T07:46:51.270Z,17.72
2018-05-15T07:48:44.113Z,17.76
2018-05-15T07:49:43.997Z,17.86
2018-05-15T07:51:36.872Z,17.84
2018-05-15T07:52:36.783Z,17.90
2018-05-15T07:54:29.604Z,17.93
2018-05-15T07:55:29.502Z,17.97
2018-05-15T07:57:22.357Z,18.03
2018-05-15T07:58:22.271Z,18.13
2018-05-15T08:00:15.122Z,18.11
2018-05-15T08:01:15.006Z,18.18
2018-05-15T08:03:07.862Z,18.24
2018-05-15T08:04:07.773Z,18.31
2018-05-15T08:06:00.627Z,18.31
2018-05-15T08:07:00.498Z,18.42
2018-05-15T08:08:53.372Z,18.61
2018-05-15T08:09:53.245Z,18.58
2018-05-15T08:11:46.120Z,18.75
2018-05-15T08:12:45.999Z,18.93
2018-05-15T08:14:39.065Z,19.09
2018-05-15T08:15:38.746Z,19.19
2018-05-15T08:17:32.025Z,19.27
2018-05-15T08:18:31.908Z,19.16
2018-05-15T08:20:24.767Z,19.27
2018-05-15T08:21:24.664Z,19.41
2018-05-15T08:23:17.542Z,19.54
2018-05-15T08:24:17.406Z,19.54
2018-05-15T08:26:10.671Z,19.35
2018-05-15T08:27:10.575Z,19.24
2018-05-15T08:29:03.468Z,19.32
2018-05-15T08:30:03.356Z,19.47
2018-05-15T08:31:56.161Z,19.63
2018-05-15T08:32:56.073Z,19.53
2018-05-15T08:34:48.944Z,19.50
2018-05-15T08:35:48.835Z,19.30
2018-05-15T08:37:41.735Z,19.23
2018-05-15T08:38:41.583Z,19.26
2018-05-15T08:40:34.431Z,19.34
2018-05-15T08:41:34.315Z,19.53
2018-05-15T08:43:27.156Z,19.41
2018-05-15T08:44:27.069Z,19.39
2018-05-15T08:46:19.922Z,19.39
2018-05-15T08:47:19.944Z,19.57
2018-05-15T08:49:12.991Z,19.68
2018-05-15T08:50:12.561Z,19.78
2018-05-15T08:52:05.814Z,19.90
2018-05-15T08:53:05.744Z,19.94
2018-05-15T08:54:58.600Z,19.77
2018-05-15T08:55:58.500Z,19.78
2018-05-15T08:57:51.341Z,19.92
2018-05-15T08:58:51.233Z,20.00
2018-05-15T09:00:44.107Z,20.17
2018-05-15T09:01:43.969Z,20.29
2018-05-15T09:03:37.339Z,20.64
2018-05-15T09:04:37.234Z,20.70
2018-05-15T09:06:30.132Z,20.86
2018-05-15T09:07:30.019Z,20.90
2018-05-15T09:09:22.840Z,20.50
2018-05-15T09:10:22.754Z,20.53
2018-05-15T09:12:15.601Z,20.65
2018-05-15T09:13:15.485Z,20.92
2018-05-15T09:15:08.329Z,20.67
2018-05-15T09:16:08.237Z,20.67
2018-05-15T09:18:01.091Z,20.74
2018-05-15T09:19:00.982Z,20.64
2018-05-15T09:20:53.824Z,20.61
2018-05-15T09:21:53.748Z,20.58
2018-05-15T09:23:46.604Z,20.82
2018-05-15T09:24:46.484Z,20.89
2018-05-15T09:26:39.338Z,20.86
2018-05-15T09:27:39.239Z,20.89
2018-05-15T09:29:32.606Z,20.88
2018-05-15T09:30:32.509Z,20.75
2018-05-15T09:32:25.365Z,20.74
2018-05-15T09:33:25.247Z,20.68
2018-05-15T09:35:18.087Z,20.60
2018-05-15T09:36:18.036Z,20.63
2018-05-15T09:38:10.851Z,20.68
2018-05-15T09:39:10.752Z,20.77
2018-05-15T09:41:03.578Z,20.70
2018-05-15T09:42:03.509Z,20.64
2018-05-15T09:43:56.368Z,20.64
2018-05-15T09:44:56.253Z,20.73
2018-05-15T09:46:49.149Z,20.77
2018-05-15T09:47:49.007Z,20.74
2018-05-15T09:49:41.847Z,20.86
2018-05-15T09:50:41.742Z,20.67
2018-05-15T09:52:35.099Z,20.77
2018-05-15T09:53:34.492Z,20.82
2018-05-15T09:55:27.344Z,20.95
2018-05-15T09:56:27.242Z,20.95
2018-05-15T09:58:20.102Z,21.08
2018-05-15T09:59:20.007Z,21.16
2018-05-15T10:01:12.970Z,21.19
2018-05-15T10:02:13.024Z,21.32
2018-05-15T10:04:08.673Z,21.38
2018-05-15T10:05:05.506Z,21.56
2018-05-15T10:06:58.360Z,21.73
2018-05-15T10:07:58.355Z,21.67
2018-05-15T10:09:51.122Z,21.84
2018-05-15T10:10:50.992Z,21.81
2018-05-15T10:12:44.255Z,21.98
2018-05-15T10:13:44.190Z,21.96
2018-05-15T10:15:36.999Z,22.00
2018-05-15T10:16:36.898Z,22.19
2018-05-15T10:18:29.740Z,22.12
2018-05-15T10:19:29.670Z,22.03
2018-05-15T10:21:22.618Z,21.81
2018-05-15T10:22:22.402Z,21.66
2018-05-15T10:24:15.235Z,21.60
2018-05-15T10:25:15.163Z,21.44
2018-05-15T10:27:08.013Z,21.34
2018-05-15T10:28:07.937Z,21.22
2018-05-15T10:30:00.774Z,21.25
2018-05-15T10:31:00.721Z,21.19
2018-05-15T10:32:53.537Z,21.19
2018-05-15T10:33:53.414Z,21.34
2018-05-15T10:35:46.239Z,21.34
2018-05-15T10:36:46.236Z,21.38
2018-05-15T10:38:39.017Z,21.13
2018-05-15T10:39:38.893Z,21.10
2018-05-15T10:41:31.753Z,21.00
2018-05-15T10:42:31.652Z,21.04
2018-05-15T10:44:24.635Z,21.19
2018-05-15T10:45:24.404Z,21.32
2018-05-15T10:47:17.243Z,21.59
2018-05-15T10:48:17.156Z,21.71
2018-05-15T10:50:09.999Z,22.04
2018-05-15T10:51:09.903Z,22.31
2018-05-15T10:53:02.771Z,22.34
2018-05-15T10:54:02.647Z,22.34
2018-05-15T10:55:55.481Z,22.21
2018-05-15T10:56:55.544Z,21.94
2018-05-15T10:58:48.249Z,22.00
2018-05-15T10:59:48.145Z,22.15
2018-05-15T11:01:40.987Z,22.16
2018-05-15T11:02:40.899Z,22.06
2018-05-15T11:04:33.771Z,21.82
2018-05-15T11:05:33.674Z,21.93
2018-05-15T11:07:26.484Z,21.73
2018-05-15T11:08:26.392Z,21.71
2018-05-15T11:10:19.274Z,21.78
2018-05-15T11:11:19.136Z,21.84
2018-05-15T11:13:11.989Z,21.93
2018-05-15T11:14:11.933Z,22.04
2018-05-15T11:16:04.756Z,22.18
2018-05-15T11:17:04.654Z,22.40
2018-05-15T11:18:57.484Z,22.58
2018-05-15T11:19:57.389Z,22.58
2018-05-15T11:21:50.259Z,22.80
2018-05-15T11:22:50.139Z,22.92
2018-05-15T11:24:43.153Z,22.73
2018-05-15T11:25:43.404Z,22.58
2018-05-15T11:27:35.746Z,22.56
2018-05-15T11:28:35.641Z,22.49
2018-05-15T11:30:28.588Z,22.44
2018-05-15T11:31:28.384Z,22.48
2018-05-15T11:33:21.232Z,22.33
2018-05-15T11:34:21.156Z,22.28
2018-05-15T11:36:14.400Z,22.28
2018-05-15T11:37:14.335Z,22.33
2018-05-15T11:39:07.144Z,22.30
2018-05-15T11:40:07.061Z,22.30
2018-05-15T11:41:59.910Z,22.31
2018-05-15T11:42:59.789Z,22.53
2018-05-15T11:44:53.149Z,22.53
2018-05-15T11:45:52.556Z,22.46
2018-05-15T11:47:45.633Z,22.23
2018-05-15T11:48:45.716Z,22.25
2018-05-15T11:50:39.275Z,22.15
2018-05-15T11:51:38.742Z,22.03
2018-05-15T11:53:30.910Z,22.21
2018-05-15T11:54:30.807Z,22.11
2018-05-15T11:56:23.695Z,22.46
2018-05-15T11:57:23.552Z,22.58
2018-05-15T11:59:16.398Z,22.51
2018-05-15T12:00:16.357Z,22.48
2018-05-15T12:02:09.146Z,22.23
2018-05-15T12:03:09.065Z,22.22
2018-05-15T12:05:01.897Z,22.28
2018-05-15T12:06:01.802Z,22.27
2018-05-15T12:07:54.673Z,22.46
2018-05-15T12:08:54.628Z,22.56
2018-05-15T12:10:47.403Z,22.77
2018-05-15T12:11:47.304Z,22.85
2018-05-15T12:13:40.145Z,22.93
2018-05-15T12:14:40.044Z,23.06
2018-05-15T12:16:32.901Z,23.29
2018-05-15T12:17:32.792Z,23.45
2018-05-15T12:19:25.660Z,23.79
2018-05-15T12:20:25.559Z,23.89
2018-05-15T12:22:18.402Z,23.97
2018-05-15T12:23:18.310Z,23.76
2018-05-15T12:25:12.557Z,23.46
2018-05-15T12:26:11.049Z,23.39
2018-05-15T12:28:03.958Z,23.54
2018-05-15T12:29:03.796Z,23.78
2018-05-15T12:30:56.644Z,23.76
2018-05-15T12:31:56.551Z,23.85
2018-05-15T12:33:49.401Z,24.00
2018-05-15T12:34:49.299Z,23.88
2018-05-15T12:36:42.168Z,23.82
2018-05-15T12:37:42.055Z,23.81
2018-05-15T12:39:34.880Z,23.61
2018-05-15T12:40:34.791Z,23.52
2018-05-15T12:42:27.667Z,23.23
2018-05-15T12:43:27.560Z,23.04
2018-05-15T12:45:20.413Z,23.06
2018-05-15T12:46:20.290Z,23.25
2018-05-15T12:48:13.174Z,23.51
2018-05-15T12:49:13.043Z,23.59
2018-05-15T12:51:05.908Z,23.61
2018-05-15T12:52:05.803Z,23.54
2018-05-15T12:53:59.224Z,23.29
2018-05-15T12:54:59.058Z,23.14
2018-05-15T12:56:51.902Z,23.11
2018-05-15T12:57:51.810Z,23.11
2018-05-15T12:59:44.658Z,23.21
2018-05-15T13:00:44.560Z,22.99
2018-05-15T13:02:37.448Z,22.96
2018-05-15T13:03:37.313Z,22.81
2018-05-15T13:05:30.135Z,22.68
2018-05-15T13:06:30.052Z,22.91
2018-05-15T13:08:22.919Z,23.07
2018-05-15T13:09:22.805Z,22.88
2018-05-15T13:11:15.650Z,23.06
2018-05-15T13:12:15.541Z,23.25
2018-05-15T13:14:08.453Z,23.29
2018-05-15T13:15:08.307Z,23.42
2018-05-15T13:17:01.158Z,23.41
2018-05-15T13:18:01.043Z,23.46
2018-05-15T13:19:53.908Z,23.14
2018-05-15T13:20:53.826Z,22.93
2018-05-15T13:22:46.656Z,22.83
2018-05-15T13:23:46.538Z,22.88
2018-05-15T13:25:39.390Z,22.81
2018-05-15T13:26:39.309Z,22.95
2018-05-15T13:28:32.151Z,23.10
2018-05-15T13:29:32.039Z,23.03
2018-05-15T13:31:25.404Z,22.92
2018-05-15T13:32:25.316Z,22.80
2018-05-15T13:34:18.160Z,22.78
2018-05-15T13:35:18.079Z,22.70
2018-05-15T13:37:10.906Z,22.61
2018-05-15T13:38:10.845Z,22.64
2018-05-15T13:40:03.675Z,22.66
2018-05-15T13:41:03.663Z,22.80
2018-05-15T13:42:56.400Z,23.10
2018-05-15T13:43:56.298Z,23.01
2018-05-15T13:45:49.200Z,23.04
2018-05-15T13:46:49.058Z,23.06
2018-05-15T13:48:41.890Z,23.44
2018-05-15T13:49:42.311Z,23.63
2018-05-15T13:51:34.652Z,23.81
2018-05-15T13:52:34.549Z,23.60
2018-05-15T13:54:27.409Z,23.67
2018-05-15T13:55:27.312Z,23.60
2018-05-15T13:57:20.145Z,23.46
2018-05-15T13:58:20.067Z,23.28
2018-05-15T14:00:12.914Z,23.26
2018-05-15T14:01:12.804Z,23.22
2018-05-15T14:03:05.647Z,22.98
2018-05-15T14:04:05.567Z,22.76
2018-05-15T14:05:58.441Z,22.55
2018-05-15T14:06:58.310Z,22.49
2018-05-15T14:08:51.561Z,22.55
2018-05-15T14:09:51.469Z,22.66
2018-05-15T14:11:44.311Z,22.96
2018-05-15T14:12:44.250Z,22.98
2018-05-15T14:14:37.058Z,22.91
2018-05-15T14:15:36.977Z,22.91
2018-05-15T14:17:30.040Z,23.15
2018-05-15T14:18:29.921Z,23.25
2018-05-15T14:20:22.782Z,23.17
2018-05-15T14:21:22.672Z,23.17
2018-05-15T14:23:15.531Z,23.04
2018-05-15T14:24:15.435Z,23.15
2018-05-15T14:26:08.278Z,23.56
2018-05-15T14:27:08.164Z,23.41
2018-05-15T14:29:01.604Z,23.37
2018-05-15T14:30:01.527Z,23.25
2018-05-15T14:31:54.395Z,23.13
2018-05-15T14:32:54.295Z,23.06
2018-05-15T14:34:47.204Z,23.14
2018-05-15T14:35:47.035Z,23.22
2018-05-15T14:37:39.904Z,23.48
2018-05-15T14:38:39.814Z,23.59
2018-05-15T14:40:32.607Z,23.79
2018-05-15T14:41:32.560Z,23.73
2018-05-15T14:43:25.416Z,23.42
2018-05-15T14:44:25.284Z,23.29
2018-05-15T14:46:18.138Z,23.25
2018-05-15T14:47:18.057Z,23.17
2018-05-15T14:49:11.941Z,23.13
2018-05-15T14:50:11.822Z,23.18
2018-05-15T14:52:04.677Z,23.23
2018-05-15T14:53:04.542Z,23.29
2018-05-15T14:54:57.405Z,23.28
2018-05-15T14:55:57.297Z,23.37
2018-05-15T14:57:50.192Z,23.36
2018-05-15T14:58:50.043Z,23.18
2018-05-15T15:00:42.889Z,23.15
2018-05-15T15:01:42.811Z,23.06
2018-05-15T15:03:35.657Z,22.86
2018-05-15T15:04:35.566Z,22.76
2018-05-15T15:06:28.387Z,22.86
2018-05-15T15:07:28.288Z,22.74
2018-05-15T15:09:21.140Z,22.95
2018-05-15T15:10:21.066Z,22.83
2018-05-15T15:12:13.913Z,22.85
2018-05-15T15:13:13.795Z,22.89
2018-05-15T15:15:06.653Z,22.93
2018-05-15T15:16:06.605Z,22.89
2018-05-15T15:17:59.404Z,22.81
2018-05-15T15:18:59.491Z,22.85
2018-05-15T15:20:52.160Z,22.73
2018-05-15T15:21:52.075Z,22.68
2018-05-15T15:23:44.946Z,22.48
2018-05-15T15:24:44.913Z,22.51
2018-05-15T15:26:37.653Z,22.44
2018-05-15T15:27:37.598Z,22.56
2018-05-15T15:29:30.378Z,22.68
2018-05-15T15:30:30.288Z,22.86
2018-05-15T15:32:23.142Z,23.06
2018-05-15T15:33:23.051Z,23.10
2018-05-15T15:35:16.509Z,23.60
2018-05-15T15:36:15.890Z,23.78
2018-05-15T15:38:12.135Z,23.88
2018-05-15T15:39:12.163Z,23.94
2018-05-15T15:41:05.625Z,24.13
2018-05-15T15:42:05.594Z,23.97
2018-05-15T15:43:58.337Z,24.51
2018-05-15T15:44:58.239Z,24.52
2018-05-15T15:46:51.120Z,24.68
2018-05-15T15:47:51.057Z,24.40
2018-05-15T15:49:43.844Z,24.68
2018-05-15T15:50:43.739Z,25.04
2018-05-15T15:52:36.643Z,25.21
2018-05-15T15:53:36.518Z,24.96
2018-05-15T15:55:29.327Z,23.98
2018-05-15T15:56:29.255Z,24.00
2018-05-15T15:58:22.198Z,24.00
2018-05-15T15:59:22.150Z,23.89
2018-05-15T16:01:14.944Z,23.78
2018-05-15T16:02:14.837Z,23.56
2018-05-15T16:04:07.705Z,23.91
2018-05-15T16:05:07.589Z,24.45
2018-05-15T16:07:00.418Z,25.12
2018-05-15T16:08:00.381Z,24.25
2018-05-15T16:09:53.251Z,24.10
2018-05-15T16:10:53.103Z,24.38
2018-05-15T16:12:45.938Z,24.03
2018-05-15T16:13:45.847Z,23.76
2018-05-15T16:15:38.734Z,23.88
2018-05-15T16:16:38.603Z,23.89
2018-05-15T16:18:31.423Z,24.00
2018-05-15T16:19:31.337Z,24.13
2018-05-15T16:21:24.249Z,23.25
2018-05-15T16:22:24.096Z,23.13
2018-05-15T16:24:16.950Z,23.88
2018-05-15T16:25:16.842Z,24.15
2018-05-15T16:27:09.712Z,23.86
2018-05-15T16:28:09.600Z,23.94
2018-05-15T16:30:02.432Z,23.92
2018-05-15T16:31:02.353Z,23.67
2018-05-15T16:32:55.241Z,23.29
2018-05-15T16:33:55.859Z,22.98
2018-05-15T16:35:48.067Z,22.49
2018-05-15T16:36:47.843Z,22.33
2018-05-15T16:38:40.702Z,22.19
2018-05-15T16:39:40.595Z,22.18
2018-05-15T16:41:33.469Z,22.27
2018-05-15T16:42:33.355Z,22.27
2018-05-15T16:44:26.192Z,22.07
2018-05-15T16:45:26.103Z,22.01
2018-05-15T16:47:19.045Z,21.84
2018-05-15T16:48:18.835Z,21.85
2018-05-15T16:50:13.129Z,21.69
2018-05-15T16:51:13.014Z,21.60
2018-05-15T16:53:05.859Z,21.51
2018-05-15T16:54:05.760Z,21.51
2018-05-15T16:55:58.602Z,21.44
2018-05-15T16:56:58.524Z,21.41
2018-05-15T16:58:51.413Z,21.38
2018-05-15T16:59:51.273Z,21.34
2018-05-15T17:01:44.500Z,21.28
2018-05-15T17:02:44.440Z,21.11
2018-05-15T17:04:37.274Z,20.97
2018-05-15T17:05:37.171Z,21.04
2018-05-15T17:07:30.001Z,20.85
2018-05-15T17:08:29.914Z,20.77
2018-05-15T17:10:22.793Z,20.58
2018-05-15T17:11:22.661Z,20.56
2018-05-15T17:13:15.545Z,20.48
2018-05-15T17:14:15.405Z,20.37
2018-05-15T17:16:08.246Z,20.29
2018-05-15T17:17:08.158Z,20.14
2018-05-15T17:19:01.049Z,20.22
2018-05-15T17:20:00.927Z,20.04
2018-05-15T17:21:53.765Z,19.79
2018-05-15T17:22:53.664Z,19.63
2018-05-15T17:24:46.533Z,19.56
2018-05-15T17:25:46.411Z,19.39
2018-05-15T17:27:39.242Z,19.27
2018-05-15T17:28:39.209Z,19.22
2018-05-15T17:30:32.073Z,18.91
2018-05-15T17:31:31.978Z,18.66
2018-05-15T17:33:24.764Z,18.45
2018-05-15T17:34:24.663Z,18.24
2018-05-15T17:36:17.544Z,18.20
2018-05-15T17:37:17.432Z,18.01
2018-05-15T17:39:10.812Z,17.76
2018-05-15T17:40:10.676Z,17.68
2018-05-15T17:42:03.576Z,17.39
2018-05-15T17:43:03.413Z,17.24
2018-05-15T17:44:56.289Z,17.07
2018-05-15T17:45:56.181Z,16.95
2018-05-15T17:47:49.096Z,16.69
2018-05-15T17:48:48.919Z,16.62
2018-05-15T17:50:41.792Z,16.64
2018-05-15T17:51:41.666Z,16.74
2018-05-15T17:53:34.520Z,16.77
2018-05-15T17:54:34.416Z,16.70
2018-05-15T17:56:27.265Z,16.72
2018-05-15T17:57:27.188Z,16.73
2018-05-15T17:59:21.116Z,16.61
2018-05-15T18:00:20.841Z,16.49
2018-05-15T18:02:13.923Z,16.37
2018-05-15T18:03:13.787Z,16.36
2018-05-15T18:05:06.642Z,16.40
2018-05-15T18:06:06.538Z,16.32
2018-05-15T18:07:59.810Z,16.32
2018-05-15T18:08:59.711Z,16.32
2018-05-15T18:10:52.547Z,16.18
2018-05-15T18:11:52.451Z,16.06
2018-05-15T18:13:45.303Z,15.84
2018-05-15T18:14:45.265Z,15.84
2018-05-15T18:16:38.039Z,15.83
2018-05-15T18:17:37.953Z,15.77
2018-05-15T18:19:30.821Z,15.63
2018-05-15T18:20:30.722Z,15.72
2018-05-15T18:22:23.572Z,15.73
2018-05-15T18:23:23.449Z,15.63
2018-05-15T18:25:16.302Z,15.69
2018-05-15T18:26:16.229Z,15.62
2018-05-15T18:28:08.962Z,15.59
2018-05-15T18:29:08.889Z,15.59
2018-05-15T18:31:01.697Z,15.63
2018-05-15T18:32:01.595Z,15.63
2018-05-15T18:33:54.481Z,15.62
2018-05-15T18:34:54.373Z,15.56